Time;durP1;ratioP1;P1;durP2;ratioP2;P2;SDS_P1;SDS_P2;PMS_P1;PMS_P2;Temp;Humidity;BMP_temperature;BMP_pressure;BME280_temperature;BME280_humidity;BME280_pressure;Samples;Min_cycle;Max_cycle;Signal;HPM_P1;HPM_P2
2023/03/16 00:00:45;;;;;;;7.13;3.30;;;;;;;-0.68;100.00;102128.91;5088582;28;20215;-70
2023/03/16 00:03:10;;;;;;;6.23;3.20;;;;;;;-0.69;100.00;102133.84;5100429;28;20233;-69
2023/03/16 00:05:36;;;;;;;11.07;3.40;;;;;;;-0.71;100.00;102135.31;5102218;28;20203;-70
2023/03/16 00:08:03;;;;;;;9.33;3.13;;;;;;;-0.72;100.00;102136.09;5099577;28;20188;-69
2023/03/16 00:10:28;;;;;;;5.67;3.20;;;;;;;-0.72;100.00;102143.63;5101266;28;20208;-70
2023/03/16 00:12:54;;;;;;;5.70;3.10;;;;;;;-0.74;100.00;102142.59;5082482;28;20203;-69
2023/03/16 00:15:20;;;;;;;7.70;3.50;;;;;;;-0.81;100.00;102146.25;5101507;28;20191;-69
2023/03/16 00:17:49;;;;;;;9.00;3.30;;;;;;;-0.88;100.00;102138.94;5100798;28;20196;-70
2023/03/16 00:20:17;;;;;;;8.73;3.40;;;;;;;-0.90;100.00;102152.13;5101949;28;20196;-69
2023/03/16 00:22:43;;;;;;;8.23;3.90;;;;;;;-0.94;100.00;102150.97;5105088;28;20282;-69
2023/03/16 00:25:11;;;;;;;7.10;3.70;;;;;;;-0.97;100.00;102153.22;5104180;28;20189;-71
2023/03/16 00:27:37;;;;;;;8.50;3.20;;;;;;;-0.97;100.00;102152.31;5104067;28;20196;-70
2023/03/16 00:30:04;;;;;;;10.50;3.43;;;;;;;-1.01;100.00;102148.69;5094961;28;20237;-70
2023/03/16 00:32:33;;;;;;;7.07;3.33;;;;;;;-1.07;100.00;102148.16;5082904;28;20223;-70
2023/03/16 00:35:00;;;;;;;9.70;3.57;;;;;;;-1.00;100.00;102152.94;5092005;28;20203;-71
2023/03/16 00:37:27;;;;;;;7.33;3.90;;;;;;;-1.06;100.00;102149.91;5083675;28;20227;-70
2023/03/16 00:39:55;;;;;;;9.00;3.30;;;;;;;-1.08;100.00;102155.56;5093355;28;20207;-69
2023/03/16 00:42:22;;;;;;;4.87;3.13;;;;;;;-1.16;100.00;102156.53;5083936;28;20470;-70
2023/03/16 00:44:48;;;;;;;7.73;4.10;;;;;;;-1.13;100.00;102152.66;5110925;28;20183;-69
2023/03/16 00:47:13;;;;;;;6.90;3.00;;;;;;;-1.19;100.00;102154.63;5090440;28;20215;-70
2023/03/16 00:49:41;;;;;;;6.67;3.50;;;;;;;-1.16;100.00;102154.00;5106384;28;20226;-71
2023/03/16 00:52:08;;;;;;;8.83;3.60;;;;;;;-1.17;100.00;102154.78;5090908;28;20212;-70
2023/03/16 00:54:34;;;;;;;6.27;3.20;;;;;;;-1.19;100.00;102154.63;5089133;28;20207;-70
2023/03/16 00:57:00;;;;;;;9.00;3.27;;;;;;;-1.24;100.00;102160.03;5087121;28;20675;-69
2023/03/16 00:59:27;;;;;;;7.73;3.57;;;;;;;-1.23;100.00;102147.56;5087608;28;20274;-69
2023/03/16 01:01:54;;;;;;;9.33;3.50;;;;;;;-1.19;100.00;102151.25;5085624;28;20461;-69
2023/03/16 01:04:20;;;;;;;10.93;4.00;;;;;;;-1.25;100.00;102150.72;5108705;28;20184;-69
2023/03/16 01:06:46;;;;;;;7.57;3.13;;;;;;;-1.23;100.00;102149.22;5090595;28;20454;-69
2023/03/16 01:09:13;;;;;;;6.57;3.50;;;;;;;-1.25;100.00;102155.72;5091596;28;20203;-69
2023/03/16 01:11:39;;;;;;;14.70;3.73;;;;;;;-1.21;100.00;102157.75;5089417;28;20203;-70
2023/03/16 01:14:04;;;;;;;7.60;3.70;;;;;;;-1.25;100.00;102145.69;5089285;28;21058;-69
2023/03/16 01:16:32;;;;;;;7.80;3.63;;;;;;;-1.25;100.00;102138.16;5089936;28;20257;-70
2023/03/16 01:18:58;;;;;;;11.50;3.83;;;;;;;-1.30;100.00;102137.78;5089908;28;20240;-69
2023/03/16 01:21:24;;;;;;;7.00;3.47;;;;;;;-1.29;100.00;102139.53;5088805;28;20457;-69
2023/03/16 01:23:49;;;;;;;13.60;3.80;;;;;;;-1.28;100.00;102137.91;5087623;28;20180;-70
2023/03/16 01:26:16;;;;;;;5.70;3.43;;;;;;;-1.33;100.00;102129.97;5088280;28;20212;-70
2023/03/16 01:28:43;;;;;;;8.83;3.73;;;;;;;-1.31;100.00;102136.00;5091361;28;20187;-70
2023/03/16 01:31:10;;;;;;;9.60;3.90;;;;;;;-1.32;100.00;102139.25;5086055;28;20204;-70
2023/03/16 01:33:37;;;;;;;7.07;3.80;;;;;;;-1.31;100.00;102133.50;5087189;28;20325;-69
2023/03/16 01:36:08;;;;;;;6.33;3.77;;;;;;;-1.36;100.00;102128.81;5074764;28;20777;-70
2023/03/16 01:38:47;;;;;;;8.63;3.60;;;;;;;-1.43;100.00;102118.97;5085523;28;20184;-67
2023/03/16 01:41:13;;;;;;;7.17;3.10;;;;;;;-1.44;100.00;102119.72;5088896;28;20545;-68
2023/03/16 01:43:40;;;;;;;6.47;3.13;;;;;;;-1.47;100.00;102132.03;5086971;28;20186;-67
2023/03/16 01:46:05;;;;;;;8.90;3.53;;;;;;;-1.50;100.00;102122.63;5086812;28;20199;-71
2023/03/16 01:48:53;;;;;;;8.93;3.23;;;;;;;-1.55;100.00;102125.47;5090872;28;20241;-68
2023/03/16 01:51:25;;;;;;;7.80;4.10;;;;;;;-1.53;100.00;102128.97;5088111;28;20457;-68
2023/03/16 01:53:58;;;;;;;8.63;4.10;;;;;;;-1.52;100.00;102133.28;5090046;28;20220;-67
2023/03/16 01:56:35;;;;;;;7.63;3.33;;;;;;;-1.58;100.00;102136.13;5089112;28;20208;-68
2023/03/16 01:59:05;;;;;;;10.00;3.10;;;;;;;-1.52;100.00;102133.28;5103459;28;20192;-69
2023/03/16 02:01:30;;;;;;;8.57;3.70;;;;;;;-1.52;100.00;102135.78;5085363;28;20489;-70
2023/03/16 02:04:08;;;;;;;8.57;3.40;;;;;;;-1.54;100.00;102134.75;5089954;28;20994;-68
2023/03/16 02:06:35;;;;;;;6.00;3.60;;;;;;;-1.55;100.00;102135.50;5088568;28;20452;-69
2023/03/16 02:09:01;;;;;;;8.27;3.13;;;;;;;-1.61;100.00;102132.47;5105732;28;20842;-68
2023/03/16 02:11:27;;;;;;;6.63;3.33;;;;;;;-1.63;100.00;102129.81;5089719;28;20982;-70
2023/03/16 02:14:11;;;;;;;6.47;3.17;;;;;;;-1.64;100.00;102133.09;5088496;28;20203;-68
2023/03/16 02:16:38;;;;;;;11.33;4.03;;;;;;;-1.65;100.00;102126.28;5085045;28;20461;-68
2023/03/16 02:19:11;;;;;;;8.77;3.37;;;;;;;-1.69;100.00;102126.75;5090474;28;20220;-67
2023/03/16 02:21:46;;;;;;;7.83;3.70;;;;;;;-1.62;100.00;102128.16;5089192;28;20215;-68
2023/03/16 02:24:11;;;;;;;10.10;3.43;;;;;;;-1.59;100.00;102138.50;5085559;28;20336;-70
2023/03/16 02:26:50;;;;;;;8.60;4.23;;;;;;;-1.56;100.00;102133.75;5088656;28;20286;-67
2023/03/16 02:29:42;;;;;;;11.60;3.53;;;;;;;-1.61;100.00;102124.94;5088620;28;20191;-68
2023/03/16 02:32:09;;;;;;;5.87;3.37;;;;;;;-1.66;100.00;102122.00;5090368;28;20883;-69
2023/03/16 02:34:34;;;;;;;7.53;3.53;;;;;;;-1.63;100.00;102126.41;5086568;28;20294;-67
2023/03/16 02:37:02;;;;;;;11.50;4.03;;;;;;;-1.66;100.00;102119.50;5089233;28;20450;-68
2023/03/16 02:39:28;;;;;;;6.40;3.93;;;;;;;-1.68;100.00;102110.06;5066955;28;20273;-69
2023/03/16 02:41:54;;;;;;;10.50;3.63;;;;;;;-1.68;100.00;102116.00;5103363;28;20465;-69
2023/03/16 02:44:24;;;;;;;4.70;3.23;;;;;;;-1.71;100.00;102107.28;5108547;28;20179;-68
2023/03/16 02:46:56;;;;;;;7.73;4.00;;;;;;;-1.70;100.00;102112.44;5105084;28;20187;-69
2023/03/16 02:49:35;;;;;;;7.57;3.73;;;;;;;-1.71;100.00;102107.28;5089630;28;20449;-68
2023/03/16 02:52:02;;;;;;;8.13;3.47;;;;;;;-1.72;100.00;102106.44;5085611;28;20460;-69
2023/03/16 02:54:29;;;;;;;9.13;3.80;;;;;;;-1.77;100.00;102107.66;5100693;28;20811;-69
2023/03/16 02:56:55;;;;;;;5.43;3.43;;;;;;;-1.80;100.00;102106.47;5076042;28;20494;-69
2023/03/16 02:59:22;;;;;;;9.73;3.60;;;;;;;-1.71;100.00;102108.19;5071829;28;20221;-67
2023/03/16 03:01:47;;;;;;;8.07;3.60;;;;;;;-1.74;100.00;102109.53;5106499;28;20465;-68
2023/03/16 03:04:14;;;;;;;10.33;3.87;;;;;;;-1.71;100.00;102108.19;5088263;28;20243;-68
2023/03/16 03:06:40;;;;;;;7.93;3.63;;;;;;;-1.71;100.00;102114.81;5082302;28;20500;-68
2023/03/16 03:09:07;;;;;;;7.63;3.43;;;;;;;-1.70;100.00;102117.47;5102591;28;20203;-68
2023/03/16 03:11:32;;;;;;;8.67;3.40;;;;;;;-1.72;100.00;102110.53;5089080;28;20219;-68
2023/03/16 03:13:58;;;;;;;8.27;3.40;;;;;;;-1.72;100.00;102115.56;5070633;28;20915;-68
2023/03/16 03:16:26;;;;;;;8.07;3.70;;;;;;;-1.72;100.00;102110.53;5107208;28;20211;-68
2023/03/16 03:18:53;;;;;;;7.37;3.70;;;;;;;-1.71;100.00;102114.81;5089130;28;20187;-69
2023/03/16 03:21:19;;;;;;;8.17;3.50;;;;;;;-1.73;100.00;102118.84;5085269;28;20214;-68
2023/03/16 03:23:45;;;;;;;8.37;3.57;;;;;;;-1.75;100.00;102126.22;5089552;28;20211;-68
2023/03/16 03:26:14;;;;;;;10.13;3.50;;;;;;;-1.77;100.00;102129.34;5086537;28;20559;-69
2023/03/16 03:28:40;;;;;;;10.63;3.77;;;;;;;-1.81;100.00;102130.72;5074105;28;20576;-68
2023/03/16 03:31:06;;;;;;;5.40;3.40;;;;;;;-1.87;100.00;102144.34;5090049;28;20221;-68
2023/03/16 03:33:32;;;;;;;8.40;3.70;;;;;;;-1.90;100.00;102136.53;5102201;28;20278;-68
2023/03/16 03:35:58;;;;;;;6.33;3.20;;;;;;;-1.90;100.00;102139.03;5107042;28;20430;-69
2023/03/16 03:38:28;;;;;;;8.33;3.10;;;;;;;-1.93;100.00;102132.13;5069860;28;20476;-69
2023/03/16 03:40:58;;;;;;;11.83;3.80;;;;;;;-1.92;100.00;102138.03;5072082;28;20523;-68
2023/03/16 03:43:25;;;;;;;8.83;3.70;;;;;;;-1.86;100.00;102124.41;5091375;28;20515;-69
2023/03/16 03:45:56;;;;;;;8.23;3.40;;;;;;;-1.87;100.00;102126.78;5089836;28;20487;-68
2023/03/16 03:48:22;;;;;;;5.70;3.23;;;;;;;-1.90;100.00;102119.84;5069135;28;20192;-69
2023/03/16 03:50:48;;;;;;;6.90;3.37;;;;;;;-1.88;100.00;102130.91;5088307;28;20457;-68
2023/03/16 03:53:17;;;;;;;6.83;3.13;;;;;;;-1.89;100.00;102126.63;5103733;28;20450;-69
2023/03/16 03:56:06;;;;;;;5.37;3.50;;;;;;;-1.79;100.00;102125.84;5087019;28;20519;-68
2023/03/16 03:58:31;;;;;;;12.57;4.23;;;;;;;-1.75;100.00;102135.41;5109861;28;20537;-68
2023/03/16 04:00:57;;;;;;;8.83;3.40;;;;;;;-1.68;100.00;102131.03;5092245;28;20289;-68
2023/03/16 04:03:22;;;;;;;6.97;3.00;;;;;;;-1.65;100.00;102130.44;5075022;28;20229;-68
2023/03/16 04:05:48;;;;;;;8.60;3.40;;;;;;;-1.63;100.00;102133.94;5111731;28;20192;-67
2023/03/16 04:08:14;;;;;;;8.00;3.03;;;;;;;-1.61;100.00;102129.97;5110547;28;20218;-68
2023/03/16 04:10:39;;;;;;;8.63;3.40;;;;;;;-1.58;100.00;102131.09;5091489;28;20207;-67
2023/03/16 04:13:05;;;;;;;6.33;3.57;;;;;;;-1.51;100.00;102128.34;5109161;28;20244;-69
2023/03/16 04:15:32;;;;;;;9.80;3.23;;;;;;;-1.47;100.00;102125.38;5089728;28;20715;-68
2023/03/16 04:18:09;;;;;;;9.23;3.00;;;;;;;-1.44;100.00;102122.25;5092800;28;20450;-68
2023/03/16 04:20:35;;;;;;;8.27;2.83;;;;;;;-1.43;100.00;102134.94;5071700;28;20487;-68
2023/03/16 04:23:01;;;;;;;6.90;3.27;;;;;;;-1.40;100.00;102126.78;5095564;28;20432;-68
2023/03/16 04:25:29;;;;;;;8.33;3.23;;;;;;;-1.40;100.00;102125.16;5075529;28;20283;-68
2023/03/16 04:27:55;;;;;;;11.83;2.80;;;;;;;-1.44;100.00;102120.63;5092926;28;20520;-69
2023/03/16 04:30:24;;;;;;;8.57;3.27;;;;;;;-1.43;100.00;102119.88;5091505;28;20504;-68
2023/03/16 04:32:55;;;;;;;7.50;3.10;;;;;;;-1.40;100.00;102117.63;5093564;28;20448;-67
2023/03/16 04:35:21;;;;;;;8.00;3.20;;;;;;;-1.34;100.00;102112.25;5087048;28;20562;-68
2023/03/16 04:37:51;;;;;;;7.90;3.40;;;;;;;-1.30;100.00;102117.69;5091682;28;20195;-68
2023/03/16 04:40:20;;;;;;;8.50;3.00;;;;;;;-1.28;100.00;102113.66;5071257;28;20184;-67
2023/03/16 04:42:51;;;;;;;7.47;3.23;;;;;;;-1.28;100.00;102122.84;5091759;28;20798;-68
2023/03/16 04:45:18;;;;;;;10.50;3.50;;;;;;;-1.29;100.00;102116.91;5111084;28;20215;-68
2023/03/16 04:47:45;;;;;;;7.80;3.20;;;;;;;-1.25;100.00;102118.94;5092713;28;20510;-67
2023/03/16 04:50:12;;;;;;;6.40;3.13;;;;;;;-1.24;100.00;102115.69;5089421;28;20180;-67
2023/03/16 04:52:39;;;;;;;10.50;3.63;;;;;;;-1.19;100.00;102114.44;5091196;28;20203;-71
2023/03/16 04:55:05;;;;;;;8.77;3.20;;;;;;;-1.22;100.00;102120.84;5086373;28;20198;-68
2023/03/16 04:57:32;;;;;;;9.07;3.50;;;;;;;-1.27;100.00;102122.97;5091840;28;20195;-67
2023/03/16 04:59:58;;;;;;;6.20;3.30;;;;;;;-1.29;100.00;102116.91;5091894;28;20195;-67
2023/03/16 05:02:35;;;;;;;8.43;3.27;;;;;;;-1.34;100.00;102118.16;5091041;28;20234;-68
2023/03/16 05:05:01;;;;;;;10.27;3.10;;;;;;;-1.34;100.00;102122.28;5090739;28;20290;-70
2023/03/16 05:07:27;;;;;;;10.67;4.90;;;;;;;-1.39;100.00;102129.44;5086292;28;20188;-68
2023/03/16 05:09:54;;;;;;;10.47;4.03;;;;;;;-1.40;100.00;102125.16;5074071;28;20285;-68
2023/03/16 05:12:20;;;;;;;6.17;2.93;;;;;;;-1.42;100.00;102124.13;5093175;28;20582;-67
2023/03/16 05:14:50;;;;;;;10.50;3.53;;;;;;;-1.44;100.00;102122.25;5091843;28;20222;-67
2023/03/16 05:17:27;;;;;;;7.07;3.00;;;;;;;-1.41;100.00;102120.00;5088932;28;20191;-69
2023/03/16 05:19:53;;;;;;;13.10;3.13;;;;;;;-1.38;100.00;102118.63;5089264;28;20249;-68
2023/03/16 05:22:19;;;;;;;7.87;3.37;;;;;;;-1.35;100.00;102110.50;5092498;28;20202;-68
2023/03/16 05:25:14;;;;;;;7.87;3.57;;;;;;;-1.29;100.00;102104.38;5091436;28;20552;-68
2023/03/16 05:27:47;;;;;;;9.13;3.30;;;;;;;-1.22;100.00;102108.28;5092496;28;20484;-69
2023/03/16 05:30:18;;;;;;;5.97;3.53;;;;;;;-1.15;100.00;102103.06;5086491;28;20191;-71
2023/03/16 05:32:44;;;;;;;8.03;3.50;;;;;;;-1.12;100.00;102105.81;5093987;28;20244;-68
2023/03/16 05:35:12;;;;;;;10.80;3.50;;;;;;;-1.06;100.00;102107.22;5084026;28;20309;-70
2023/03/16 05:37:39;;;;;;;9.47;5.20;;;;;;;-1.01;100.00;102111.00;5090639;28;20206;-70
2023/03/16 05:40:18;;;;;;;8.00;5.17;;;;;;;-1.00;100.00;102107.72;5070701;28;20192;-68
2023/03/16 05:42:54;;;;;;;9.23;5.50;;;;;;;-0.95;100.00;102119.06;5097289;28;20441;-67
2023/03/16 05:45:20;;;;;;;9.80;4.20;;;;;;;-0.94;100.00;102112.41;5087031;28;20215;-71
2023/03/16 05:48:09;;;;;;;9.40;4.00;;;;;;;-0.89;100.00;102119.56;5090450;28;20196;-68
2023/03/16 05:50:41;;;;;;;12.17;3.53;;;;;;;-0.81;100.00;102130.28;5087031;28;20234;-71
2023/03/16 05:53:07;;;;;;;8.00;3.73;;;;;;;-0.76;100.00;102139.09;5087816;28;20244;-68
2023/03/16 05:55:34;;;;;;;6.63;3.60;;;;;;;-0.71;100.00;102132.81;5091020;28;20180;-68
2023/03/16 05:58:03;;;;;;;6.77;3.47;;;;;;;-0.64;100.00;102140.13;5089363;28;20183;-70
2023/03/16 06:00:28;;;;;;;8.47;3.63;;;;;;;-0.61;100.00;102140.38;5090349;28;20199;-67
2023/03/16 06:03:05;;;;;;;10.70;3.73;;;;;;;-0.52;100.00;102138.63;5089881;28;20175;-71
2023/03/16 06:05:33;;;;;;;6.23;3.60;;;;;;;-0.46;100.00;102139.16;5089619;28;20199;-71
2023/03/16 06:08:00;;;;;;;6.97;3.57;;;;;;;-0.40;100.00;102129.59;5092167;28;20191;-67
2023/03/16 06:10:26;;;;;;;8.37;3.97;;;;;;;-0.31;100.00;102135.38;5090676;28;20284;-71
2023/03/16 06:12:52;;;;;;;5.73;3.50;;;;;;;-0.21;100.00;102130.34;5091312;28;20195;-69
2023/03/16 06:15:19;;;;;;;9.17;3.70;;;;;;;-0.15;100.00;102129.22;5090804;28;20180;-70
2023/03/16 06:17:45;;;;;;;8.27;3.73;;;;;;;-0.09;100.00;102136.41;5091590;28;20523;-70
2023/03/16 06:20:12;;;;;;;11.70;3.67;;;;;;;-0.02;100.00;102128.59;5090703;28;20288;-70
2023/03/16 06:22:40;;;;;;;9.07;3.63;;;;;;;0.05;100.00;102131.72;5090708;28;20176;-70
2023/03/16 06:25:08;;;;;;;8.83;3.70;;;;;;;0.12;100.00;102138.13;5091702;28;20239;-70
2023/03/16 06:27:34;;;;;;;12.10;3.73;;;;;;;0.20;100.00;102137.97;5089697;28;20193;-70
2023/03/16 06:30:10;;;;;;;6.80;3.70;;;;;;;0.31;100.00;102131.28;5086432;28;20183;-69
2023/03/16 06:32:37;;;;;;;8.97;4.17;;;;;;;0.38;100.00;102124.34;5087652;28;20328;-69
2023/03/16 06:35:04;;;;;;;11.17;3.60;;;;;;;0.47;100.00;102125.09;5090659;28;20648;-70
2023/03/16 06:37:31;;;;;;;6.30;3.23;;;;;;;0.55;100.00;102122.31;5073554;28;20194;-70
2023/03/16 06:40:00;;;;;;;12.13;5.07;;;;;;;0.60;100.00;102128.59;5090544;28;20193;-71
2023/03/16 06:42:27;;;;;;;13.57;5.13;;;;;;;0.71;100.00;102137.84;5091936;28;20200;-69
2023/03/16 06:44:52;;;;;;;6.37;3.67;;;;;;;0.85;100.00;102149.91;5093326;28;20200;-71
2023/03/16 06:47:18;;;;;;;8.40;3.40;;;;;;;0.95;100.00;102148.22;5093800;28;20219;-70
2023/03/16 06:49:45;;;;;;;6.90;3.60;;;;;;;1.09;100.00;102149.31;5109044;28;20183;-70
2023/03/16 06:52:18;;;;;;;6.53;3.40;;;;;;;1.18;100.00;102162.59;5089626;28;20222;-69
2023/03/16 06:54:44;;;;;;;8.70;3.40;;;;;;;1.31;100.00;102146.03;5089232;28;20276;-69
2023/03/16 06:57:10;;;;;;;7.67;3.40;;;;;;;1.44;100.00;102152.88;5090356;28;20213;-69
2023/03/16 06:59:35;;;;;;;7.77;3.17;;;;;;;1.51;100.00;102156.00;5105132;28;20196;-70
2023/03/16 07:02:01;;;;;;;6.50;3.00;;;;;;;1.46;100.00;102147.19;5094207;28;20214;-69
2023/03/16 07:04:27;;;;;;;6.17;3.00;;;;;;;1.49;100.00;102154.13;5090825;28;20240;-70
2023/03/16 07:06:52;;;;;;;6.13;3.10;;;;;;;1.49;100.00;102155.00;5107905;28;20236;-70
2023/03/16 07:09:18;;;;;;;5.77;3.57;;;;;;;1.57;100.00;102160.63;5092263;28;20194;-71
2023/03/16 07:11:43;;;;;;;9.80;3.50;;;;;;;1.63;100.00;102151.00;5090706;28;20208;-70
2023/03/16 07:14:10;;;;;;;9.50;3.27;;;;;;;1.76;100.00;102147.00;5109505;28;20315;-70
2023/03/16 07:16:36;;;;;;;5.53;3.00;;;;;;;1.74;100.00;102156.06;5088354;28;20199;-70
2023/03/16 07:19:03;;;;;;;11.60;3.87;;;;;;;1.83;100.00;102154.25;5090971;28;20608;-71
2023/03/16 07:21:37;;;;;;;6.73;3.40;;;;;;;1.84;100.00;102163.56;5073061;28;20211;-70
2023/03/16 07:24:04;;;;;;;9.93;4.50;;;;;;;2.00;100.00;102161.44;5089531;28;20290;-69
2023/03/16 07:26:35;;;;;;;8.73;3.80;;;;;;;1.96;100.00;102156.91;5074332;28;20198;-70
2023/03/16 07:29:03;;;;;;;7.60;3.60;;;;;;;2.04;100.00;102160.91;5093798;28;20188;-70
2023/03/16 07:31:29;;;;;;;5.90;3.50;;;;;;;2.14;100.00;102159.91;5097350;28;20229;-70
2023/03/16 07:33:57;;;;;;;8.03;3.80;;;;;;;2.14;100.00;102158.28;5077459;28;20283;-70
2023/03/16 07:36:34;;;;;;;8.63;3.33;;;;;;;2.47;100.00;102152.25;5094051;28;20201;-72
2023/03/16 07:39:00;;;;;;;8.93;3.60;;;;;;;2.56;100.00;102152.91;5094334;28;20663;-71
2023/03/16 07:41:26;;;;;;;8.37;3.40;;;;;;;2.67;100.00;102142.81;5112165;28;20199;-73
2023/03/16 07:43:52;;;;;;;6.73;3.57;;;;;;;2.91;100.00;102143.69;5094929;28;20882;-69
2023/03/16 07:46:22;;;;;;;8.90;3.80;;;;;;;2.92;100.00;102141.25;5091618;28;20188;-70
2023/03/16 07:48:47;;;;;;;6.87;3.50;;;;;;;2.92;100.00;102136.19;5094668;28;20217;-70
2023/03/16 07:51:13;;;;;;;8.00;3.70;;;;;;;3.15;100.00;102146.28;5093661;28;20203;-70
2023/03/16 07:53:39;;;;;;;6.73;3.43;;;;;;;3.09;100.00;102133.19;5094749;28;20187;-71
2023/03/16 07:56:16;;;;;;;6.23;3.07;;;;;;;3.30;100.00;102143.91;5089765;28;20184;-70
2023/03/16 07:58:44;;;;;;;8.20;3.20;;;;;;;3.32;100.00;102139.84;5092044;28;20562;-72
2023/03/16 08:01:10;;;;;;;8.70;4.07;;;;;;;3.49;100.00;102146.94;5094236;28;20206;-70
2023/03/16 08:03:36;;;;;;;12.90;3.57;;;;;;;3.76;100.00;102128.53;5093697;28;20267;-70
2023/03/16 08:06:03;;;;;;;8.07;3.60;;;;;;;3.75;100.00;102111.56;5089059;28;20765;-71
2023/03/16 08:08:29;;;;;;;8.77;3.27;;;;;;;3.88;100.00;102102.38;5090105;28;20215;-69
2023/03/16 08:10:54;;;;;;;8.83;4.00;;;;;;;4.17;100.00;102078.91;5108649;28;20234;-71
2023/03/16 08:13:23;;;;;;;11.30;3.37;;;;;;;4.31;100.00;102073.06;5094457;28;20191;-70
2023/03/16 08:15:57;;;;;;;9.73;3.47;;;;;;;4.64;100.00;102054.91;5111774;28;20190;-70
2023/03/16 08:18:28;;;;;;;9.37;3.20;;;;;;;4.62;100.00;102024.41;5093927;28;20702;-71
2023/03/16 08:20:55;;;;;;;9.90;3.23;;;;;;;4.85;100.00;101996.22;5071282;28;20242;-70
2023/03/16 08:23:23;;;;;;;7.10;3.00;;;;;;;5.04;100.00;101968.63;5107681;28;20279;-70
2023/03/16 08:25:53;;;;;;;10.00;4.47;;;;;;;5.31;100.00;101977.88;5092131;28;20242;-72
2023/03/16 08:28:20;;;;;;;17.57;9.83;;;;;;;5.64;100.00;101956.94;5096348;28;20390;-70
2023/03/16 08:30:51;;;;;;;8.87;4.30;;;;;;;5.58;100.00;101923.56;5091947;28;20211;-69
2023/03/16 08:33:41;;;;;;;10.07;3.17;;;;;;;5.77;100.00;101945.78;5082633;28;20179;-69
2023/03/16 08:36:10;;;;;;;7.87;3.00;;;;;;;5.87;100.00;101921.03;5092400;28;20190;-70
2023/03/16 08:38:37;;;;;;;5.53;2.80;;;;;;;6.07;100.00;101917.00;5091417;28;20274;-71
2023/03/16 08:41:06;;;;;;;4.83;2.80;;;;;;;6.30;100.00;101934.38;5107184;28;20239;-69
2023/03/16 08:43:33;;;;;;;9.03;2.70;;;;;;;6.65;100.00;101904.06;5091009;28;20684;-72
2023/03/16 08:46:00;;;;;;;10.43;2.80;;;;;;;6.77;100.00;101793.56;5091430;28;20183;-71
2023/03/16 08:48:33;;;;;;;5.03;2.20;;;;;;;6.92;100.00;101755.28;5076639;28;20663;-71
2023/03/16 08:51:03;;;;;;;8.27;2.83;;;;;;;7.15;100.00;101725.03;5092138;28;20544;-71
2023/03/16 08:53:29;;;;;;;4.70;2.33;;;;;;;7.38;100.00;101685.31;5111666;28;20233;-70
2023/03/16 08:56:11;;;;;;;5.67;2.50;;;;;;;7.65;100.00;101627.94;5093274;28;20201;-70
2023/03/16 08:58:37;;;;;;;5.70;2.13;;;;;;;7.24;100.00;101602.31;5109310;28;20660;-70
2023/03/16 09:01:05;;;;;;;6.70;2.37;;;;;;;7.68;100.00;101589.84;5092903;28;20207;-71
2023/03/16 09:03:34;;;;;;;4.73;2.00;;;;;;;8.09;100.00;101547.41;5111782;28;20289;-70
2023/03/16 09:06:05;;;;;;;5.73;2.17;;;;;;;8.49;100.00;101515.03;5105390;28;20189;-70
2023/03/16 09:08:32;;;;;;;3.07;2.03;;;;;;;8.65;98.40;101434.78;5106175;28;20604;-71
2023/03/16 09:10:59;;;;;;;4.60;2.10;;;;;;;8.97;94.87;101395.94;5092369;28;20222;-71
2023/03/16 09:13:25;;;;;;;6.20;2.23;;;;;;;9.07;91.70;101346.94;5108343;28;20217;-70
2023/03/16 09:15:50;;;;;;;3.47;1.80;;;;;;;9.20;89.29;101315.84;5106019;28;20188;-71
2023/03/16 09:18:17;;;;;;;5.70;1.83;;;;;;;10.04;85.21;101286.09;5088436;28;20240;-69
2023/03/16 09:20:44;;;;;;;5.30;1.90;;;;;;;10.23;78.98;101218.41;5108018;28;20203;-71
2023/03/16 09:23:10;;;;;;;6.03;2.03;;;;;;;10.86;71.68;101150.84;5074981;28;20187;-71
2023/03/16 09:25:35;;;;;;;3.80;1.87;;;;;;;14.00;55.90;100909.94;5091620;28;20276;-71
2023/03/16 09:28:01;;;;;;;4.37;2.20;;;;;;;16.22;45.39;100618.50;5110537;28;20195;-71
2023/03/16 09:30:26;;;;;;;7.47;2.13;;;;;;;17.62;42.38;101635.94;5110255;28;20213;-71
2023/03/16 09:32:52;;;;;;;5.78;1.98;;;;;;;18.71;38.79;101840.28;5108851;28;20187;-72
2023/03/16 09:35:18;;;;;;;5.47;1.50;;;;;;;17.25;40.20;101866.16;5093770;28;20183;-73
2023/03/16 09:37:44;;;;;;;4.27;1.83;;;;;;;15.84;42.24;101898.91;5103464;28;20194;-72
2023/03/16 09:40:25;;;;;;;4.60;1.80;;;;;;;14.76;41.88;101881.53;5108622;28;20192;-70
2023/03/16 09:43:09;;;;;;;3.73;1.70;;;;;;;15.83;42.90;101898.91;5090887;28;20200;-73
2023/03/16 09:45:40;;;;;;;6.10;1.53;;;;;;;16.97;40.14;101848.66;5090397;28;20199;-71
2023/03/16 09:48:09;;;;;;;5.20;2.10;;;;;;;18.29;36.85;101853.06;5108900;28;20657;-70
2023/03/16 09:50:38;;;;;;;4.60;1.87;;;;;;;19.38;34.97;101857.69;5109223;28;20298;-70
2023/03/16 09:53:28;;;;;;;3.77;2.00;;;;;;;19.65;35.14;101869.78;5108458;28;20194;-69
2023/03/16 09:56:14;;;;;;;4.00;1.70;;;;;;;19.44;35.06;101890.59;5091331;28;20207;-70
2023/03/16 09:58:39;;;;;;;5.10;1.77;;;;;;;20.42;32.99;101867.88;5109561;28;20187;-70
2023/03/16 10:01:09;;;;;;;3.17;1.40;;;;;;;21.06;31.74;101870.13;5091942;28;20579;-70
2023/03/16 10:04:06;;;;;;;4.40;1.83;;;;;;;21.12;32.44;101883.16;5107665;28;20288;-68
2023/03/16 10:06:32;;;;;;;5.47;2.03;;;;;;;21.82;30.99;101873.00;5107650;28;20220;-71
2023/03/16 10:09:15;;;;;;;4.50;1.80;;;;;;;21.82;31.67;101886.91;5106939;28;20183;-69
2023/03/16 10:11:45;;;;;;;3.67;1.98;;;;;;;20.85;31.54;101895.44;5108770;28;20215;-69
2023/03/16 10:14:31;;;;;;;3.15;1.42;;;;;;;21.00;31.87;101909.25;5108455;28;20199;-69
2023/03/16 10:16:56;;;;;;;3.60;1.70;;;;;;;20.01;31.68;101927.81;5107110;28;20187;-69
2023/03/16 10:19:31;;;;;;;4.10;1.73;;;;;;;19.39;32.39;101924.38;5109082;28;20667;-72
2023/03/16 10:22:01;;;;;;;2.67;1.50;;;;;;;19.36;33.79;101939.09;5109546;28;20207;-69
2023/03/16 10:24:55;;;;;;;2.33;1.53;;;;;;;19.31;33.08;101920.91;5109222;28;20576;-68
2023/03/16 10:27:38;;;;;;;3.77;1.60;;;;;;;18.27;34.08;101929.13;5087721;28;20204;-72
2023/03/16 10:30:13;;;;;;;3.93;1.57;;;;;;;18.91;33.35;101932.06;5090667;28;20684;-71
2023/03/16 10:32:39;;;;;;;4.57;1.70;;;;;;;18.82;33.83;101938.94;5107347;28;20650;-72
2023/03/16 10:35:10;;;;;;;5.40;1.80;;;;;;;17.29;36.06;101962.03;5108002;28;20214;-71
2023/03/16 10:37:37;;;;;;;4.03;1.77;;;;;;;18.47;34.31;101950.91;5109748;28;20188;-71
2023/03/16 10:40:08;;;;;;;5.33;1.57;;;;;;;17.26;35.27;101946.44;5108682;28;20184;-73
2023/03/16 10:42:35;;;;;;;3.93;1.43;;;;;;;17.09;33.41;101945.41;5110008;28;20198;-71
2023/03/16 10:45:02;;;;;;;3.57;1.10;;;;;;;18.58;30.07;101928.47;5106156;28;20216;-72
2023/03/16 10:47:31;;;;;;;1.87;1.10;;;;;;;20.07;29.77;101925.19;5091190;28;20245;-70
2023/03/16 10:49:56;;;;;;;3.80;1.20;;;;;;;20.59;27.56;101916.38;5108471;28;20278;-72
2023/03/16 10:52:36;;;;;;;3.33;1.20;;;;;;;21.25;26.61;101910.84;5109595;28;20294;-69
2023/03/16 10:55:09;;;;;;;2.40;1.00;;;;;;;18.80;27.06;101922.50;5106113;28;20179;-70
2023/03/16 10:57:40;;;;;;;2.63;1.10;;;;;;;19.27;26.76;101920.91;5108571;28;20222;-69
2023/03/16 11:00:19;;;;;;;2.53;1.03;;;;;;;19.64;26.75;101907.94;5090325;28;20191;-71
2023/03/16 11:02:46;;;;;;;0.73;0.73;;;;;;;19.19;26.37;101901.78;5104117;28;20187;-69
2023/03/16 11:05:17;;;;;;;2.33;0.80;;;;;;;17.24;28.28;101917.09;5088817;28;20792;-70
2023/03/16 11:07:51;;;;;;;2.20;1.00;;;;;;;16.72;28.75;101925.13;5086793;28;20645;-69
2023/03/16 11:10:26;;;;;;;2.67;1.33;;;;;;;16.86;28.65;101909.78;5105983;28;20198;-68
2023/03/16 11:12:52;;;;;;;2.03;1.10;;;;;;;18.56;27.30;101904.25;5105473;28;20232;-71
2023/03/16 11:15:20;;;;;;;3.20;0.90;;;;;;;17.84;26.68;101896.91;5089303;28;20199;-69
2023/03/16 11:17:50;;;;;;;1.80;0.80;;;;;;;18.67;26.21;101898.25;5107166;28;20199;-69
2023/03/16 11:20:27;;;;;;;2.53;0.90;;;;;;;18.47;25.47;101888.66;5106903;28;20633;-69
2023/03/16 11:22:53;;;;;;;1.77;1.03;;;;;;;19.76;25.79;101884.50;5090320;28;20221;-71
2023/03/16 11:25:41;;;;;;;1.87;0.87;;;;;;;20.19;24.73;101873.19;5107336;28;20207;-70
2023/03/16 11:28:11;;;;;;;2.50;0.70;;;;;;;20.34;23.90;101867.03;5108530;28;20207;-70